Time;durP1;ratioP1;P1;durP2;ratioP2;P2;SDS_P1;SDS_P2;PMS_P1;PMS_P2;Temp;Humidity;BMP_temperature;BMP_pressure;BME280_temperature;BME280_humidity;BME280_pressure;Samples;Min_cycle;Max_cycle;Signal;HPM_P1;HPM_P2
2023/09/23 00:01:46;;;;;;;3.30;1.83;;;;;;;;;;5909235;28;20051;-72
2023/09/23 00:04:37;;;;;;;5.80;2.67;;;;;;;;;;5912714;28;20041;-72
2023/09/23 00:07:31;;;;;;;1.55;1.30;;;;;;;;;;5912723;28;20056;-72
2023/09/23 00:10:21;;;;;;;5.82;2.35;;;;;;;;;;5912573;28;20052;-72
2023/09/23 00:13:12;;;;;;;1.88;1.70;;;;;;;;;;5912766;28;20045;-72
2023/09/23 00:16:08;;;;;;;2.85;2.15;;;;;;;;;;5912416;28;20119;-72
2023/09/23 00:18:59;;;;;;;4.45;3.00;;;;;;;;;;5878897;28;20045;-72
2023/09/23 00:21:51;;;;;;;4.18;1.70;;;;;;;;;;5896113;28;20048;-73
2023/09/23 00:24:42;;;;;;;4.40;2.63;;;;;;;;;;5904205;28;20040;-72
2023/09/23 00:27:34;;;;;;;2.83;2.05;;;;;;;;;;5899644;28;20041;-73
2023/09/23 00:30:26;;;;;;;2.00;1.60;;;;;;;;;;5900290;28;20048;-72
2023/09/23 00:33:17;;;;;;;3.85;1.73;;;;;;;;;;5901842;28;20475;-73
2023/09/23 00:36:09;;;;;;;3.83;2.10;;;;;;;;;;5898170;28;20452;-72
2023/09/23 00:39:02;;;;;;;8.02;2.47;;;;;;;;;;5904283;28;20048;-73
2023/09/23 00:41:54;;;;;;;4.10;1.92;;;;;;;;;;5912672;28;20044;-72
2023/09/23 00:44:45;;;;;;;4.28;1.92;;;;;;;;;;5912087;28;20388;-72
2023/09/23 00:47:36;;;;;;;5.65;1.90;;;;;;;;;;5894261;28;20476;-73
2023/09/23 00:50:29;;;;;;;6.97;2.97;;;;;;;;;;5910837;28;20068;-72
2023/09/23 00:53:22;;;;;;;7.15;2.92;;;;;;;;;;5911884;28;20503;-72
2023/09/23 00:56:16;;;;;;;4.05;2.92;;;;;;;;;;5910453;28;20122;-72
2023/09/23 00:59:07;;;;;;;4.50;3.42;;;;;;;;;;5910729;28;20135;-74
2023/09/23 01:01:58;;;;;;;14.52;4.45;;;;;;;;;;5910665;28;20400;-72
2023/09/23 01:04:50;;;;;;;7.40;4.07;;;;;;;;;;5911104;28;20124;-73
2023/09/23 01:07:42;;;;;;;9.52;5.07;;;;;;;;;;5911371;28;20055;-71
2023/09/23 01:10:33;;;;;;;5.32;4.65;;;;;;;;;;5911448;28;20047;-72
2023/09/23 01:13:24;;;;;;;8.10;5.03;;;;;;;;;;5911086;28;20048;-73
2023/09/23 01:16:16;;;;;;;7.05;3.92;;;;;;;;;;5911180;28;20045;-72
2023/09/23 01:19:09;;;;;;;9.18;5.55;;;;;;;;;;5911136;28;20067;-72
2023/09/23 01:22:01;;;;;;;24.77;5.40;;;;;;;;;;5911868;28;20055;-72
2023/09/23 01:24:52;;;;;;;7.13;5.07;;;;;;;;;;5911397;28;20053;-72
2023/09/23 01:27:43;;;;;;;30.48;3.75;;;;;;;;;;5893138;28;20059;-73
2023/09/23 01:30:35;;;;;;;5.05;3.75;;;;;;;;;;5893257;28;20052;-73
2023/09/23 01:33:27;;;;;;;4.32;3.33;;;;;;;;;;5911028;28;20040;-72
2023/09/23 01:36:18;;;;;;;8.48;3.78;;;;;;;;;;5910739;28;20088;-72
2023/09/23 01:39:09;;;;;;;3.35;2.38;;;;;;;;;;5910801;28;20462;-72
2023/09/23 01:42:00;;;;;;;8.98;2.60;;;;;;;;;;5911500;28;20048;-72
2023/09/23 01:44:52;;;;;;;2.88;2.15;;;;;;;;;;5910613;28;20056;-72
2023/09/23 01:47:44;;;;;;;3.30;2.58;;;;;;;;;;5909236;28;20051;-72
2023/09/23 01:50:35;;;;;;;5.15;3.10;;;;;;;;;;5910842;28;20456;-72
2023/09/23 01:53:27;;;;;;;3.25;2.22;;;;;;;;;;5910530;28;20152;-72
2023/09/23 01:56:19;;;;;;;6.22;2.65;;;;;;;;;;5910695;28;20513;-73
2023/09/23 01:59:12;;;;;;;12.40;2.65;;;;;;;;;;5910427;28;20110;-71
2023/09/23 02:02:03;;;;;;;4.20;2.75;;;;;;;;;;5910526;28;20044;-71
2023/09/23 02:04:56;;;;;;;4.18;3.20;;;;;;;;;;5911214;28;20076;-71
2023/09/23 02:07:50;;;;;;;6.15;3.58;;;;;;;;;;5892455;28;20045;-72
2023/09/23 02:10:44;;;;;;;7.13;3.35;;;;;;;;;;5892421;28;20114;-72
2023/09/23 02:13:40;;;;;;;7.68;3.55;;;;;;;;;;5892751;28;20150;-72
2023/09/23 02:16:31;;;;;;;5.28;3.30;;;;;;;;;;5893705;28;20432;-71
2023/09/23 02:19:24;;;;;;;8.90;3.45;;;;;;;;;;5890991;28;20045;-73
2023/09/23 02:22:16;;;;;;;7.13;3.53;;;;;;;;;;5886719;28;20045;-72
2023/09/23 02:25:07;;;;;;;4.95;3.15;;;;;;;;;;5886837;28;20056;-72
2023/09/23 02:27:58;;;;;;;4.18;3.25;;;;;;;;;;5887881;28;20037;-71
2023/09/23 02:30:51;;;;;;;6.50;3.40;;;;;;;;;;5887185;28;20110;-73
2023/09/23 02:33:43;;;;;;;7.00;4.50;;;;;;;;;;5887039;28;20047;-72
2023/09/23 02:36:35;;;;;;;10.25;4.85;;;;;;;;;;5894916;28;20048;-71
2023/09/23 02:39:26;;;;;;;7.40;4.80;;;;;;;;;;5898790;28;20051;-73
2023/09/23 02:42:17;;;;;;;7.82;3.63;;;;;;;;;;5899548;28;20048;-72
2023/09/23 02:45:13;;;;;;;9.27;4.47;;;;;;;;;;5886573;28;20051;-71
2023/09/23 02:48:05;;;;;;;4.07;3.10;;;;;;;;;;5895292;28;20130;-71
2023/09/23 02:51:00;;;;;;;5.75;3.40;;;;;;;;;;5909981;28;20055;-72
2023/09/23 02:53:51;;;;;;;6.15;2.65;;;;;;;;;;5893143;28;20050;-71
2023/09/23 02:56:43;;;;;;;7.93;3.75;;;;;;;;;;5910237;28;20052;-72
2023/09/23 02:59:41;;;;;;;4.47;2.47;;;;;;;;;;5909945;28;20110;-72
2023/09/23 03:02:32;;;;;;;3.60;2.67;;;;;;;;;;5910001;28;20387;-72
2023/09/23 03:05:31;;;;;;;3.70;2.85;;;;;;;;;;5908669;28;20071;-72
2023/09/23 03:08:24;;;;;;;1.58;1.45;;;;;;;;;;5892808;28;20040;-72
2023/09/23 03:11:18;;;;;;;2.55;2.25;;;;;;;;;;5910023;28;20047;-72
2023/09/23 03:14:17;;;;;;;3.95;2.63;;;;;;;;;;5910030;28;20511;-72
2023/09/23 03:17:09;;;;;;;3.60;2.75;;;;;;;;;;5909580;28;20049;-72
2023/09/23 03:20:00;;;;;;;1.85;1.73;;;;;;;;;;5910463;28;20052;-71
2023/09/23 03:22:52;;;;;;;2.72;2.28;;;;;;;;;;5910834;28;20044;-73
2023/09/23 03:25:47;;;;;;;4.13;2.95;;;;;;;;;;5913917;28;20052;-73
2023/09/23 03:28:42;;;;;;;4.57;2.05;;;;;;;;;;5896289;28;20045;-72
2023/09/23 03:31:34;;;;;;;2.00;1.52;;;;;;;;;;5913894;28;20048;-71
2023/09/23 03:34:29;;;;;;;6.75;2.47;;;;;;;;;;5913730;28;20040;-73
2023/09/23 03:37:20;;;;;;;2.95;2.53;;;;;;;;;;5913550;28;20048;-72
2023/09/23 03:40:14;;;;;;;3.83;2.50;;;;;;;;;;5913636;28;20057;-71
2023/09/23 03:43:05;;;;;;;4.57;2.78;;;;;;;;;;5913653;28;20056;-72
2023/09/23 03:45:56;;;;;;;4.43;1.48;;;;;;;;;;5914235;28;20468;-73
2023/09/23 03:48:47;;;;;;;2.53;1.75;;;;;;;;;;5913319;28;20041;-71
2023/09/23 03:51:38;;;;;;;3.25;1.65;;;;;;;;;;5912314;28;20040;-72
2023/09/23 03:54:29;;;;;;;1.15;1.05;;;;;;;;;;5913407;28;20044;-73
2023/09/23 03:57:20;;;;;;;2.92;1.30;;;;;;;;;;5913099;28;20052;-72
2023/09/23 04:00:16;;;;;;;2.38;1.83;;;;;;;;;;5913400;28;20048;-72
2023/09/23 04:03:07;;;;;;;1.75;1.58;;;;;;;;;;5913158;28;20091;-73
2023/09/23 04:05:58;;;;;;;3.05;1.35;;;;;;;;;;5913869;28;20454;-74
2023/09/23 04:08:49;;;;;;;2.92;2.25;;;;;;;;;;5913322;28;20499;-72
2023/09/23 04:11:40;;;;;;;4.28;1.58;;;;;;;;;;5912956;28;20045;-71
2023/09/23 04:14:31;;;;;;;2.45;1.90;;;;;;;;;;5913092;28;20110;-72
2023/09/23 04:17:24;;;;;;;1.95;1.38;;;;;;;;;;5913031;28;20171;-73
2023/09/23 04:20:15;;;;;;;2.60;1.92;;;;;;;;;;5912997;28;20047;-71
2023/09/23 04:23:06;;;;;;;2.88;1.75;;;;;;;;;;5912723;28;20127;-73
2023/09/23 04:25:57;;;;;;;2.47;2.13;;;;;;;;;;5895746;28;20056;-72
2023/09/23 04:28:52;;;;;;;1.33;1.13;;;;;;;;;;5912864;28;20048;-71
2023/09/23 04:31:43;;;;;;;5.00;1.50;;;;;;;;;;5912440;28;20040;-73
2023/09/23 04:34:35;;;;;;;2.30;1.95;;;;;;;;;;5912113;28;20131;-71
2023/09/23 04:37:27;;;;;;;2.30;1.58;;;;;;;;;;5912344;28;20051;-71
2023/09/23 04:40:18;;;;;;;1.63;1.52;;;;;;;;;;5912252;28;20045;-73
2023/09/23 04:43:12;;;;;;;1.98;1.58;;;;;;;;;;5912246;28;20111;-71
2023/09/23 04:46:03;;;;;;;8.60;1.65;;;;;;;;;;5912338;28;20044;-71
2023/09/23 04:48:55;;;;;;;2.13;1.92;;;;;;;;;;5911303;28;20123;-74
2023/09/23 04:51:46;;;;;;;1.20;1.13;;;;;;;;;;5912199;28;20387;-72
2023/09/23 04:54:37;;;;;;;3.40;1.83;;;;;;;;;;5911969;28;20040;-71
2023/09/23 04:57:28;;;;;;;2.97;1.83;;;;;;;;;;5911746;28;20049;-71
2023/09/23 05:00:19;;;;;;;3.22;1.70;;;;;;;;;;5911858;28;20495;-73
2023/09/23 05:03:11;;;;;;;3.00;1.17;;;;;;;;;;5911720;28;20048;-72
2023/09/23 05:06:05;;;;;;;2.97;1.85;;;;;;;;;;5911406;28;20380;-72
2023/09/23 05:08:58;;;;;;;1.33;1.23;;;;;;;;;;5911944;28;20044;-72
2023/09/23 05:11:51;;;;;;;1.67;1.42;;;;;;;;;;5911810;28;20045;-72
2023/09/23 05:14:42;;;;;;;2.17;1.67;;;;;;;;;;5911610;28;20434;-71
2023/09/23 05:17:33;;;;;;;1.38;1.17;;;;;;;;;;5911304;28;20059;-73
2023/09/23 05:20:25;;;;;;;3.83;1.40;;;;;;;;;;5911657;28;20499;-71
2023/09/23 05:23:16;;;;;;;1.13;0.90;;;;;;;;;;5911642;28;20558;-73
2023/09/23 05:26:07;;;;;;;1.98;1.40;;;;;;;;;;5911317;28;20044;-72
2023/09/23 05:28:58;;;;;;;0.75;0.73;;;;;;;;;;5911987;28;20391;-73
2023/09/23 05:31:49;;;;;;;0.98;0.82;;;;;;;;;;5911289;28;20151;-72
2023/09/23 05:34:41;;;;;;;0.70;0.65;;;;;;;;;;5911304;28;20040;-71
2023/09/23 05:37:32;;;;;;;2.58;1.60;;;;;;;;;;5911079;28;20067;-71
2023/09/23 05:40:23;;;;;;;2.90;1.73;;;;;;;;;;5893590;28;20443;-72
2023/09/23 05:43:14;;;;;;;1.73;0.82;;;;;;;;;;5911215;28;20378;-73
2023/09/23 05:46:05;;;;;;;1.60;1.38;;;;;;;;;;5910577;28;20266;-72
2023/09/23 05:48:57;;;;;;;3.25;1.95;;;;;;;;;;5911369;28;20036;-72
2023/09/23 05:51:52;;;;;;;0.95;0.73;;;;;;;;;;5910862;28;20041;-71
2023/09/23 05:54:43;;;;;;;0.90;0.80;;;;;;;;;;5910340;28;20044;-71
2023/09/23 05:57:34;;;;;;;2.03;1.45;;;;;;;;;;5910177;28;20057;-71
2023/09/23 06:00:25;;;;;;;1.52;0.90;;;;;;;;;;5910492;28;20040;-74
2023/09/23 06:03:17;;;;;;;1.92;1.00;;;;;;;;;;5910146;28;20119;-71
2023/09/23 06:06:09;;;;;;;1.42;1.10;;;;;;;;;;5910307;28;20102;-74
2023/09/23 06:09:00;;;;;;;2.42;1.38;;;;;;;;;;5911141;28;20442;-73
2023/09/23 06:11:51;;;;;;;0.93;0.82;;;;;;;;;;5910474;28;20064;-74
2023/09/23 06:14:41;;;;;;;1.08;0.80;;;;;;;;;;5909993;28;20051;-72
2023/09/23 06:17:32;;;;;;;0.57;0.57;;;;;;;;;;5910075;28;20045;-74
2023/09/23 06:20:23;;;;;;;1.10;0.80;;;;;;;;;;5910279;28;20051;-72
2023/09/23 06:23:14;;;;;;;1.95;1.02;;;;;;;;;;5909995;28;20475;-73
2023/09/23 06:26:05;;;;;;;2.17;1.30;;;;;;;;;;5910221;28;20053;-73
2023/09/23 06:28:57;;;;;;;5.90;0.55;;;;;;;;;;5910823;28;20052;-74
2023/09/23 06:31:48;;;;;;;0.85;0.50;;;;;;;;;;5909950;28;20036;-74
2023/09/23 06:34:39;;;;;;;1.83;0.55;;;;;;;;;;5909351;28;20127;-74
2023/09/23 06:37:30;;;;;;;0.40;0.40;;;;;;;;;;5909541;28;20047;-77
2023/09/23 06:40:21;;;;;;;0.45;0.45;;;;;;;;;;5909777;28;20056;-75
2023/09/23 06:43:12;;;;;;;1.65;0.45;;;;;;;;;;5909416;28;20072;-76
2023/09/23 06:46:03;;;;;;;0.30;0.30;;;;;;;;;;5909847;28;20045;-74
2023/09/23 06:48:54;;;;;;;0.22;0.22;;;;;;;;;;5910421;28;20122;-75
2023/09/23 06:51:45;;;;;;;15.10;0.60;;;;;;;;;;5910000;28;20044;-75
2023/09/23 06:54:35;;;;;;;1.55;0.65;;;;;;;;;;5909899;28;20049;-77
2023/09/23 06:57:26;;;;;;;0.20;0.20;;;;;;;;;;5909555;28;20138;-75
2023/09/23 07:00:18;;;;;;;0.93;0.73;;;;;;;;;;5914021;28;20407;-76
2023/09/23 07:03:08;;;;;;;0.82;0.50;;;;;;;;;;5913962;28;20456;-74
2023/09/23 07:05:59;;;;;;;1.27;1.10;;;;;;;;;;5914406;28;20087;-76
2023/09/23 07:08:50;;;;;;;1.05;0.55;;;;;;;;;;5913542;28;20487;-74
2023/09/23 07:11:41;;;;;;;0.20;0.20;;;;;;;;;;5913921;28;20131;-76
2023/09/23 07:14:32;;;;;;;0.20;0.20;;;;;;;;;;5913915;28;20059;-74
2023/09/23 07:17:23;;;;;;;1.40;0.68;;;;;;;;;;5913879;28;20036;-74
2023/09/23 07:20:15;;;;;;;0.20;0.20;;;;;;;;;;5913971;28;20049;-75
2023/09/23 07:23:06;;;;;;;0.32;0.32;;;;;;;;;;5913963;28;20482;-74
2023/09/23 07:25:56;;;;;;;0.45;0.45;;;;;;;;;;5914384;28;20064;-75
2023/09/23 07:28:51;;;;;;;0.50;0.30;;;;;;;;;;5896043;28;20044;-75
2023/09/23 07:31:41;;;;;;;0.20;0.20;;;;;;;;;;5913758;28;20037;-74
2023/09/23 07:34:32;;;;;;;1.33;0.47;;;;;;;;;;5913656;28;20047;-74
2023/09/23 07:37:24;;;;;;;0.40;0.35;;;;;;;;;;5895528;28;20041;-73
2023/09/23 07:40:14;;;;;;;0.45;0.38;;;;;;;;;;5913144;28;20041;-74
2023/09/23 07:43:07;;;;;;;0.38;0.35;;;;;;;;;;5913536;28;20666;-75
2023/09/23 07:45:57;;;;;;;0.35;0.35;;;;;;;;;;5896395;28;20043;-74
2023/09/23 07:48:48;;;;;;;0.80;0.70;;;;;;;;;;5913173;28;20543;-75
2023/09/23 07:51:40;;;;;;;0.40;0.30;;;;;;;;;;5895528;28;20036;-75
2023/09/23 07:54:30;;;;;;;0.43;0.43;;;;;;;;;;5903809;28;20464;-75
2023/09/23 07:57:21;;;;;;;0.95;0.45;;;;;;;;;;5912883;28;20052;-75
2023/09/23 08:00:12;;;;;;;0.40;0.40;;;;;;;;;;5913210;28;20053;-73
2023/09/23 08:03:03;;;;;;;1.60;0.52;;;;;;;;;;5913159;28;20060;-76
2023/09/23 08:05:54;;;;;;;0.82;0.77;;;;;;;;;;5913582;28;20451;-74
2023/09/23 08:08:45;;;;;;;3.17;0.77;;;;;;;;;;5912463;28;20475;-76
2023/09/23 08:11:36;;;;;;;1.30;0.88;;;;;;;;;;5912940;28;20052;-75
2023/09/23 08:14:26;;;;;;;1.02;0.80;;;;;;;;;;5912917;28;20049;-75
2023/09/23 08:17:17;;;;;;;0.82;0.82;;;;;;;;;;5912387;28;20123;-74
2023/09/23 08:20:23;;;;;;;1.08;1.00;;;;;;;;;;5912688;28;20092;-75
2023/09/23 08:23:15;;;;;;;5.57;1.70;;;;;;;;;;5912640;28;20063;-74
2023/09/23 08:26:06;;;;;;;1.33;1.17;;;;;;;;;;5912487;28;20047;-74
2023/09/23 08:28:56;;;;;;;3.03;0.93;;;;;;;;;;5912907;28;20059;-76
2023/09/23 08:31:47;;;;;;;2.08;1.40;;;;;;;;;;5894724;28;20043;-74
2023/09/23 08:34:38;;;;;;;3.83;1.80;;;;;;;;;;5912409;28;20476;-75
2023/09/23 08:37:29;;;;;;;1.10;1.00;;;;;;;;;;5912036;28;20043;-73
2023/09/23 08:40:20;;;;;;;5.88;1.83;;;;;;;;;;5912208;28;20044;-74
2023/09/23 08:43:11;;;;;;;3.05;2.25;;;;;;;;;;5912265;28;20048;-75
2023/09/23 08:46:07;;;;;;;5.35;2.95;;;;;;;;;;5912205;28;20182;-74
2023/09/23 08:49:01;;;;;;;1.73;1.60;;;;;;;;;;5912689;28;20607;-75
2023/09/23 08:51:55;;;;;;;5.70;1.55;;;;;;;;;;5912366;28;20472;-76
2023/09/23 08:54:50;;;;;;;2.33;1.95;;;;;;;;;;5911863;28;20598;-75
2023/09/23 08:57:41;;;;;;;6.93;2.17;;;;;;;;;;5911329;28;20078;-74
2023/09/23 09:00:32;;;;;;;2.35;1.70;;;;;;;;;;5911725;28;20041;-75
2023/09/23 09:03:22;;;;;;;1.92;1.52;;;;;;;;;;5911433;28;20056;-74
2023/09/23 09:06:18;;;;;;;1.90;1.50;;;;;;;;;;5910400;28;20053;-77
2023/09/23 09:09:09;;;;;;;1.50;1.33;;;;;;;;;;5894042;28;20133;-75
2023/09/23 09:12:00;;;;;;;1.83;1.23;;;;;;;;;;5911568;28;20048;-75
2023/09/23 09:14:51;;;;;;;2.80;2.15;;;;;;;;;;5911072;28;20500;-75
2023/09/23 09:17:44;;;;;;;4.05;1.63;;;;;;;;;;5893082;28;20092;-76
2023/09/23 09:20:37;;;;;;;2.50;1.63;;;;;;;;;;5910448;28;20476;-75
2023/09/23 09:23:32;;;;;;;4.57;1.63;;;;;;;;;;5911075;28;20040;-74
2023/09/23 09:26:24;;;;;;;2.25;1.67;;;;;;;;;;5893832;28;20044;-75
2023/09/23 09:29:16;;;;;;;1.75;1.63;;;;;;;;;;5910987;28;20056;-75
2023/09/23 09:32:11;;;;;;;2.25;1.58;;;;;;;;;;5910820;28;20044;-75
2023/09/23 09:35:06;;;;;;;2.22;1.52;;;;;;;;;;5910829;28;20048;-75
2023/09/23 09:38:05;;;;;;;5.75;2.13;;;;;;;;;;5911075;28;20041;-75
2023/09/23 09:41:13;;;;;;;2.05;1.48;;;;;;;;;;5895087;28;20096;-74
2023/09/23 09:44:07;;;;;;;3.30;1.40;;;;;;;;;;5902779;28;20483;-75
2023/09/23 09:47:00;;;;;;;1.98;1.35;;;;;;;;;;5902536;28;20595;-75
2023/09/23 09:49:52;;;;;;;1.25;1.15;;;;;;;;;;5910900;28;20051;-75
2023/09/23 09:52:43;;;;;;;3.13;1.30;;;;;;;;;;5910431;28;20154;-73
2023/09/23 09:55:35;;;;;;;2.50;1.85;;;;;;;;;;5910681;28;20044;-75
2023/09/23 09:58:40;;;;;;;1.25;1.15;;;;;;;;;;5910374;28;20044;-74
2023/09/23 10:01:33;;;;;;;2.55;1.58;;;;;;;;;;5910382;28;20044;-74
2023/09/23 10:04:32;;;;;;;1.38;1.17;;;;;;;;;;5892938;28;20128;-73
2023/09/23 10:07:44;;;;;;;3.08;1.85;;;;;;;;;;5910327;28;20041;-75
2023/09/23 10:10:35;;;;;;;0.70;0.70;;;;;;;;;;5909904;28;20135;-74
2023/09/23 10:13:31;;;;;;;1.45;0.73;;;;;;;;;;5892710;28;20048;-74
2023/09/23 10:16:27;;;;;;;0.73;0.70;;;;;;;;;;5892675;28;20044;-75
2023/09/23 10:19:29;;;;;;;0.68;0.68;;;;;;;;;;5896285;28;20064;-74
2023/09/23 10:22:21;;;;;;;0.98;0.82;;;;;;;;;;5910073;28;20040;-74
2023/09/23 10:25:12;;;;;;;1.60;1.15;;;;;;;;;;5892435;28;20128;-75
2023/09/23 10:28:05;;;;;;;0.60;0.60;;;;;;;;;;5888767;28;20498;-74
2023/09/23 10:31:03;;;;;;;0.80;0.68;;;;;;;;;;5910017;28;20047;-75
2023/09/23 10:33:54;;;;;;;0.77;0.73;;;;;;;;;;5914245;28;20043;-75
2023/09/23 10:36:49;;;;;;;1.52;0.80;;;;;;;;;;5914488;28;20510;-75
2023/09/23 10:39:44;;;;;;;0.65;0.60;;;;;;;;;;5896570;28;20041;-75
2023/09/23 10:42:35;;;;;;;1.30;0.98;;;;;;;;;;5896682;28;20091;-75
2023/09/23 10:45:26;;;;;;;0.95;0.80;;;;;;;;;;5896654;28;20441;-75
2023/09/23 10:48:17;;;;;;;2.25;1.60;;;;;;;;;;5913083;28;20048;-74
2023/09/23 10:51:12;;;;;;;1.05;0.90;;;;;;;;;;5914315;28;20591;-74
2023/09/23 10:54:02;;;;;;;1.40;1.13;;;;;;;;;;5914082;28;20479;-75
2023/09/23 10:56:53;;;;;;;0.90;0.90;;;;;;;;;;5914683;28;20056;-74
2023/09/23 10:59:45;;;;;;;0.65;0.65;;;;;;;;;;5913526;28;20051;-74
2023/09/23 11:02:36;;;;;;;0.88;0.75;;;;;;;;;;5896321;28;20060;-75
2023/09/23 11:05:27;;;;;;;1.38;1.15;;;;;;;;;;5896096;28;20060;-74
2023/09/23 11:08:18;;;;;;;4.18;1.45;;;;;;;;;;5913611;28;20055;-74
2023/09/23 11:11:09;;;;;;;1.98;1.27;;;;;;;;;;5913947;28;20471;-74
2023/09/23 11:14:00;;;;;;;1.58;0.88;;;;;;;;;;5913901;28;20114;-75
2023/09/23 11:16:51;;;;;;;1.73;1.10;;;;;;;;;;5914299;28;20059;-75
2023/09/23 11:20:00;;;;;;;6.03;1.38;;;;;;;;;;5913705;28;20048;-74
2023/09/23 11:23:03;;;;;;;0.98;0.70;;;;;;;;;;5913838;28;20391;-74
2023/09/23 11:25:54;;;;;;;0.93;0.85;;;;;;;;;;5913872;28;20066;-74
2023/09/23 11:28:45;;;;;;;1.27;0.95;;;;;;;;;;5895691;28;20068;-74
2023/09/23 11:31:36;;;;;;;1.00;0.73;;;;;;;;;;5913568;28;20479;-75
2023/09/23 11:34:27;;;;;;;0.68;0.68;;;;;;;;;;5913478;28;20040;-74
2023/09/23 11:37:22;;;;;;;0.90;0.82;;;;;;;;;;5913276;28;20044;-73
2023/09/23 11:40:18;;;;;;;2.10;0.90;;;;;;;;;;5896186;28;20052;-76
2023/09/23 11:43:09;;;;;;;1.35;0.90;;;;;;;;;;5912461;28;20044;-75
2023/09/23 11:46:00;;;;;;;0.55;0.52;;;;;;;;;;5913735;28;20037;-75
2023/09/23 11:48:51;;;;;;;0.57;0.57;;;;;;;;;;5913574;28;20036;-74
2023/09/23 11:51:41;;;;;;;1.05;0.85;;;;;;;;;;5912999;28;20055;-74
2023/09/23 11:54:33;;;;;;;0.98;0.82;;;;;;;;;;5913138;28;20102;-75
2023/09/23 11:57:25;;;;;;;0.80;0.65;;;;;;;;;;5912477;28;20040;-74
2023/09/23 12:00:16;;;;;;;0.47;0.47;;;;;;;;;;5912665;28;20047;-74
2023/09/23 12:03:07;;;;;;;0.35;0.35;;;;;;;;;;5912621;28;20050;-75
2023/09/23 12:05:58;;;;;;;0.50;0.50;;;;;;;;;;5913182;28;20044;-75
2023/09/23 12:08:49;;;;;;;0.50;0.50;;;;;;;;;;5912906;28;20041;-74
2023/09/23 12:11:40;;;;;;;0.75;0.73;;;;;;;;;;5912549;28;20185;-74
2023/09/23 12:14:31;;;;;;;0.93;0.80;;;;;;;;;;5894531;28;20044;-75
2023/09/23 12:17:22;;;;;;;0.50;0.50;;;;;;;;;;5912448;28;20388;-74
2023/09/23 12:20:14;;;;;;;0.57;0.55;;;;;;;;;;5912431;28;20052;-75
2023/09/23 12:23:05;;;;;;;1.63;0.60;;;;;;;;;;5912501;28;20044;-75
2023/09/23 12:25:55;;;;;;;0.75;0.70;;;;;;;;;;5913073;28;20048;-74
2023/09/23 12:28:46;;;;;;;0.98;0.52;;;;;;;;;;5912363;28;20049;-74
2023/09/23 12:31:37;;;;;;;1.05;0.88;;;;;;;;;;5894541;28;20044;-75
2023/09/23 12:34:29;;;;;;;0.80;0.70;;;;;;;;;;5912072;28;20124;-77
2023/09/23 12:37:20;;;;;;;0.60;0.60;;;;;;;;;;5912135;28;20060;-74
2023/09/23 12:40:11;;;;;;;0.75;0.52;;;;;;;;;;5893994;28;20048;-74
2023/09/23 12:43:02;;;;;;;1.50;1.02;;;;;;;;;;5912086;28;20041;-74
2023/09/23 12:45:53;;;;;;;0.73;0.73;;;;;;;;;;5912309;28;20051;-75
2023/09/23 12:48:44;;;;;;;1.73;1.35;;;;;;;;;;5911870;28;20048;-75
2023/09/23 12:51:38;;;;;;;4.85;1.05;;;;;;;;;;5911932;28;20052;-74
2023/09/23 12:54:29;;;;;;;0.82;0.80;;;;;;;;;;5911809;28;20042;-75
2023/09/23 12:57:19;;;;;;;1.27;0.93;;;;;;;;;;5911388;28;20051;-75
2023/09/23 13:00:11;;;;;;;0.80;0.75;;;;;;;;;;5911598;28;20081;-74
2023/09/23 13:03:03;;;;;;;1.20;1.05;;;;;;;;;;5893346;28;20052;-74
2023/09/23 13:05:55;;;;;;;2.22;1.42;;;;;;;;;;5911865;28;20055;-74
2023/09/23 13:08:46;;;;;;;0.68;0.68;;;;;;;;;;5911464;28;20056;-73
2023/09/23 13:11:37;;;;;;;1.23;0.60;;;;;;;;;;5911544;28;20123;-74
2023/09/23 13:14:28;;;;;;;2.17;0.73;;;;;;;;;;5911499;28;20119;-73
2023/09/23 13:17:18;;;;;;;1.25;1.15;;;;;;;;;;5910017;28;20181;-73
2023/09/23 13:20:10;;;;;;;4.25;0.80;;;;;;;;;;5911246;28;20056;-73
2023/09/23 13:23:01;;;;;;;0.93;0.77;;;;;;;;;;5911406;28;20048;-76
2023/09/23 13:25:54;;;;;;;0.50;0.50;;;;;;;;;;5911546;28;20111;-75
2023/09/23 13:28:44;;;;;;;2.97;1.20;;;;;;;;;;5911044;28;20049;-74
2023/09/23 13:31:36;;;;;;;2.35;1.58;;;;;;;;;;5911117;28;20060;-75
2023/09/23 13:34:28;;;;;;;0.63;0.63;;;;;;;;;;5910805;28;20040;-75
2023/09/23 13:37:18;;;;;;;1.33;1.15;;;;;;;;;;5893146;28;20040;-75
2023/09/23 13:40:11;;;;;;;1.02;0.75;;;;;;;;;;5910762;28;20041;-73
2023/09/23 13:43:02;;;;;;;1.48;1.15;;;;;;;;;;5910889;28;20379;-75
2023/09/23 13:45:53;;;;;;;0.60;0.60;;;;;;;;;;5911312;28;20415;-74
2023/09/23 13:48:44;;;;;;;1.13;1.02;;;;;;;;;;5892266;28;20198;-74
2023/09/23 13:51:35;;;;;;;6.72;1.30;;;;;;;;;;5910451;28;20045;-74
2023/09/23 13:54:26;;;;;;;2.92;1.40;;;;;;;;;;5910037;28;20063;-74
2023/09/23 13:57:17;;;;;;;1.45;1.23;;;;;;;;;;5910410;28;20474;-75
2023/09/23 14:00:08;;;;;;;1.13;1.02;;;;;;;;;;5910202;28;20045;-75
2023/09/23 14:03:00;;;;;;;4.63;1.35;;;;;;;;;;5910848;28;20041;-73
2023/09/23 14:05:51;;;;;;;0.85;0.60;;;;;;;;;;5910617;28;20080;-75
2023/09/23 14:08:42;;;;;;;1.05;0.90;;;;;;;;;;5910257;28;20136;-73
2023/09/23 14:11:33;;;;;;;0.63;0.50;;;;;;;;;;5910732;28;20052;-74
2023/09/23 14:14:24;;;;;;;0.73;0.73;;;;;;;;;;5910828;28;20522;-74
2023/09/23 14:17:15;;;;;;;3.25;2.20;;;;;;;;;;5910544;28;20040;-73
2023/09/23 14:20:10;;;;;;;0.80;0.77;;;;;;;;;;5910758;28;20036;-74
2023/09/23 14:23:01;;;;;;;2.33;1.17;;;;;;;;;;5910548;28;20048;-75
2023/09/23 14:25:52;;;;;;;1.85;0.90;;;;;;;;;;5910970;28;20463;-74
2023/09/23 14:28:45;;;;;;;3.47;1.27;;;;;;;;;;5910446;28;20404;-74
2023/09/23 14:31:37;;;;;;;0.85;0.82;;;;;;;;;;5910308;28;20460;-74
2023/09/23 14:34:28;;;;;;;0.77;0.60;;;;;;;;;;5910110;28;20047;-73
2023/09/23 14:37:19;;;;;;;1.17;0.85;;;;;;;;;;5926060;28;20048;-73
2023/09/23 14:40:12;;;;;;;1.17;0.50;;;;;;;;;;5910073;28;20052;-73
2023/09/23 14:43:02;;;;;;;0.80;0.80;;;;;;;;;;5909685;28;20047;-74
2023/09/23 14:45:53;;;;;;;0.68;0.68;;;;;;;;;;5909924;28;20040;-73
2023/09/23 14:48:44;;;;;;;1.65;0.70;;;;;;;;;;5917254;28;20042;-73
2023/09/23 14:51:36;;;;;;;3.03;1.77;;;;;;;;;;5916181;28;20045;-74
2023/09/23 14:54:26;;;;;;;1.58;0.82;;;;;;;;;;5892097;28;20045;-74
2023/09/23 14:57:18;;;;;;;1.50;0.75;;;;;;;;;;5912403;28;20085;-73
2023/09/23 15:00:10;;;;;;;0.65;0.55;;;;;;;;;;5920858;28;20041;-73
2023/09/23 15:03:03;;;;;;;0.43;0.43;;;;;;;;;;5909625;28;20427;-74
2023/09/23 15:05:54;;;;;;;1.23;0.82;;;;;;;;;;5908170;28;20044;-72
2023/09/23 15:08:44;;;;;;;0.82;0.50;;;;;;;;;;5923392;28;20067;-72
2023/09/23 15:11:49;;;;;;;6.10;2.22;;;;;;;;;;5931214;28;20059;-73
2023/09/23 15:14:40;;;;;;;4.82;1.15;;;;;;;;;;5929744;28;20059;-74
2023/09/23 15:17:31;;;;;;;2.47;1.27;;;;;;;;;;5922247;28;20348;-73
2023/09/23 15:20:22;;;;;;;5.13;3.53;;;;;;;;;;5905255;28;20050;-74
2023/09/23 15:23:13;;;;;;;6.10;2.10;;;;;;;;;;5913209;28;20053;-74
2023/09/23 15:26:04;;;;;;;6.18;1.20;;;;;;;;;;5913371;28;20499;-73
2023/09/23 15:28:55;;;;;;;4.70;1.63;;;;;;;;;;5892510;28;20052;-74
2023/09/23 15:31:46;;;;;;;2.40;0.80;;;;;;;;;;5933248;28;20454;-73
2023/09/23 15:34:37;;;;;;;15.15;1.45;;;;;;;;;;5913382;28;20068;-73
2023/09/23 15:37:28;;;;;;;1.85;1.00;;;;;;;;;;5913136;28;20052;-73
2023/09/23 15:40:19;;;;;;;2.80;1.55;;;;;;;;;;5932189;28;20044;-73
2023/09/23 15:43:11;;;;;;;3.83;2.13;;;;;;;;;;5919589;28;20043;-73
2023/09/23 15:46:02;;;;;;;2.28;1.38;;;;;;;;;;5887300;28;20063;-73
2023/09/23 15:48:53;;;;;;;8.23;2.28;;;;;;;;;;5918445;28;20102;-73
2023/09/23 15:51:44;;;;;;;1.15;1.05;;;;;;;;;;5932912;28;20040;-73
2023/09/23 15:54:34;;;;;;;2.95;1.83;;;;;;;;;;5912890;28;20040;-75
2023/09/23 15:57:26;;;;;;;2.47;1.50;;;;;;;;;;5889543;28;20515;-72
2023/09/23 16:00:17;;;;;;;4.38;2.33;;;;;;;;;;5928760;28;20052;-73
2023/09/23 16:03:09;;;;;;;16.40;7.93;;;;;;;;;;5895824;28;20179;-74
2023/09/23 16:06:00;;;;;;;15.18;7.63;;;;;;;;;;5913222;28;20388;-73
2023/09/23 16:08:51;;;;;;;17.42;4.68;;;;;;;;;;5900812;28;20044;-74
2023/09/23 16:11:42;;;;;;;3.58;2.10;;;;;;;;;;5931773;28;20488;-74
2023/09/23 16:14:33;;;;;;;4.10;3.03;;;;;;;;;;5911208;28;20041;-74
2023/09/23 16:17:23;;;;;;;20.50;3.50;;;;;;;;;;5878193;28;20039;-73
2023/09/23 16:20:14;;;;;;;6.07;3.85;;;;;;;;;;5911447;28;20487;-73
2023/09/23 16:23:06;;;;;;;7.05;4.00;;;;;;;;;;5921044;28;20044;-74
2023/09/23 16:25:57;;;;;;;12.05;5.50;;;;;;;;;;5912874;28;20045;-74
2023/09/23 16:28:48;;;;;;;6.97;3.92;;;;;;;;;;5916752;28;20056;-74
2023/09/23 16:31:40;;;;;;;4.57;3.70;;;;;;;;;;5932552;28;20047;-73
2023/09/23 16:34:30;;;;;;;5.70;4.15;;;;;;;;;;5912318;28;20046;-72
2023/09/23 16:37:21;;;;;;;4.15;2.85;;;;;;;;;;5911849;28;20056;-73
2023/09/23 16:40:12;;;;;;;4.88;3.35;;;;;;;;;;5928157;28;20058;-73
2023/09/23 16:43:03;;;;;;;3.72;2.63;;;;;;;;;;5921251;28;20056;-74
2023/09/23 16:45:54;;;;;;;2.78;2.05;;;;;;;;;;5912534;28;20132;-74
2023/09/23 16:48:45;;;;;;;2.47;1.83;;;;;;;;;;5914840;28;20052;-73
2023/09/23 16:51:36;;;;;;;2.30;1.70;;;;;;;;;;5933188;28;20036;-74
2023/09/23 16:54:27;;;;;;;1.90;1.50;;;;;;;;;;5911508;28;20051;-74
2023/09/23 16:57:19;;;;;;;1.92;1.67;;;;;;;;;;5910753;28;20045;-74
2023/09/23 17:00:10;;;;;;;1.80;1.17;;;;;;;;;;5925840;28;20051;-73
2023/09/23 17:03:01;;;;;;;2.83;1.92;;;;;;;;;;5920739;28;20044;-74
2023/09/23 17:05:53;;;;;;;3.65;1.65;;;;;;;;;;5911891;28;20447;-73
2023/09/23 17:08:44;;;;;;;2.28;1.85;;;;;;;;;;5913767;28;20076;-73
2023/09/23 17:11:35;;;;;;;2.25;1.63;;;;;;;;;;5932535;28;20437;-74